Time;durP1;ratioP1;P1;durP2;ratioP2;P2;SDS_P1;SDS_P2;PMS_P1;PMS_P2;Temp;Humidity;BMP_temperature;BMP_pressure;BME280_temperature;BME280_humidity;BME280_pressure;Samples;Min_cycle;Max_cycle;Signal;HPM_P1;HPM_P2
2023/07/19 00:02:32;;;;;;;7.93;5.50;;;18.60;99.90;;;;;;5056075;28;20526;-92
2023/07/19 00:05:42;;;;;;;;;;;;;;;;;;;;;
2023/07/19 00:08:38;;;;;;;4.57;4.07;;;18.70;99.90;;;;;;5031474;28;20448;-93
2023/07/19 00:12:08;;;;;;;6.10;4.30;;;18.50;99.90;;;;;;5042826;28;20883;-93
2023/07/19 00:17:47;;;;;;;;;;;;;;;;;;;;;
2023/07/19 00:20:56;;;;;;;4.70;4.13;;;18.70;99.90;;;;;;5388122;22;20498;-92
2023/07/19 00:23:55;;;;;;;6.90;4.80;;;18.70;99.90;;;;;;5026252;28;20804;-92
2023/07/19 00:26:22;;;;;;;4.67;3.70;;;;;;;;;;5028557;28;20436;-93
2023/07/19 00:32:16;;;;;;;8.87;5.77;;;18.70;99.90;;;;;;5022042;28;20452;-92
2023/07/19 00:46:32;;;;;;;6.20;4.17;;;18.50;99.90;;;;;;5046567;28;20449;-94
2023/07/19 00:52:22;;;;;;;6.73;4.37;;;18.30;99.90;;;;;;5028089;28;20454;-94
2023/07/19 00:55:13;;;;;;;;;;;;;;;;;;;;;
2023/07/19 00:58:11;;;;;;;5.23;4.27;;;15.90;99.90;;;;;;5045294;28;20443;-92
2023/07/19 01:01:10;;;;;;;4.83;4.03;;;18.20;99.90;;;;;;5054303;28;20503;-93
2023/07/19 01:07:13;;;;;;;8.97;3.87;;;17.90;99.90;;;;;;5051982;28;20446;-92
2023/07/19 01:10:19;;;;;;;5.97;3.97;;;18.10;99.90;;;;;;5050451;28;20453;-92
2023/07/19 01:15:42;;;;;;;8.00;3.87;;;17.90;99.90;;;;;;5041187;28;20479;-92
2023/07/19 01:21:45;;;;;;;4.13;3.73;;;18.40;99.90;;;;;;4999316;28;20461;-92
2023/07/19 01:27:49;;;;;;;;;;;;;;;;;;;;;
2023/07/19 01:54:43;;;;;;;;;;;;;;;;;;;;;
2023/07/19 02:17:01;;;;;;;6.60;4.20;;;17.70;99.90;;;;;;5036864;22;20499;-93
2023/07/19 02:22:58;;;;;;;4.77;3.87;;;17.70;99.90;;;;;;5022426;28;20459;-92
2023/07/19 02:25:49;;;;;;;6.90;4.20;;;17.60;99.90;;;;;;4942474;29;20509;-92
2023/07/19 02:32:11;;;;;;;6.27;3.80;;;17.40;99.90;;;;;;5020700;28;20478;-92
2023/07/19 02:44:10;;;;;;;5.33;3.73;;;17.20;99.90;;;;;;5484821;22;20465;-94
2023/07/19 02:54:25;;;;;;;4.30;4.00;;;17.30;99.90;;;;;;4923948;29;20490;-92
2023/07/19 03:29:58;;;;;;;4.10;3.30;;;;;;;;;;5170035;22;20490;-92
2023/07/19 03:33:16;;;;;;;4.63;4.20;;;17.90;1.00;;;;;;5032748;28;20491;-92
2023/07/19 03:42:12;;;;;;;3.70;3.30;;;17.60;99.90;;;;;;5037444;28;20455;-92
2023/07/19 03:45:10;;;;;;;4.77;3.77;;;18.90;1.00;;;;;;5034319;28;20446;-92
2023/07/19 03:51:23;;;;;;;5.30;3.80;;;17.80;1.00;;;;;;4982658;28;20916;-92
2023/07/19 04:36:43;;;;;;;3.60;2.80;;;18.30;99.90;;;;;;5000915;28;20480;-92
2023/07/19 04:45:36;;;;;;;4.70;2.97;;;18.40;99.90;;;;;;4960554;29;20452;-92
2023/07/19 04:57:48;;;;;;;4.00;2.90;;;18.60;99.90;;;;;;4668148;22;20491;-90
2023/07/19 05:00:27;;;;;;;3.97;2.00;;;;;;;;;;4949084;29;20454;-91
2023/07/19 05:02:55;;;;;;;3.73;2.57;;;18.70;99.90;;;;;;5049350;22;20491;-90
2023/07/19 05:05:23;;;;;;;3.67;2.73;;;;;;;;;;5025678;28;20447;-91
2023/07/19 05:07:50;;;;;;;2.87;2.33;;;18.80;99.90;;;;;;5028059;28;20459;-90
2023/07/19 05:10:17;;;;;;;3.07;2.27;;;18.90;99.90;;;;;;5022843;28;20471;-90
2023/07/19 05:12:44;;;;;;;3.73;2.80;;;18.80;1.00;;;;;;5022200;28;20482;-89
2023/07/19 05:15:11;;;;;;;12.13;2.83;;;19.40;99.90;;;;;;5037093;28;20451;-90
2023/07/19 05:17:42;;;;;;;4.13;2.60;;;18.90;99.90;;;;;;5036241;28;20459;-90
2023/07/19 05:20:12;;;;;;;2.93;2.20;;;18.80;99.90;;;;;;5024417;28;20484;-89
2023/07/19 05:22:39;;;;;;;3.30;2.30;;;18.90;99.90;;;;;;5021536;28;20507;-89
2023/07/19 05:25:09;;;;;;;2.67;2.47;;;18.90;99.90;;;;;;5024369;28;20486;-88
2023/07/19 05:27:36;;;;;;;2.77;2.50;;;19.00;99.90;;;;;;5023052;28;20450;-88
2023/07/19 05:30:04;;;;;;;4.20;2.43;;;19.00;99.90;;;;;;5025072;28;20455;-90
2023/07/19 05:32:31;;;;;;;3.53;2.30;;;18.80;1.00;;;;;;5023690;28;20475;-90
2023/07/19 05:34:58;;;;;;;3.37;2.37;;;;;;;;;;5023628;28;20470;-90
2023/07/19 05:37:27;;;;;;;2.43;2.23;;;19.20;99.90;;;;;;5024366;28;20483;-89
2023/07/19 05:39:55;;;;;;;6.23;2.67;;;;;;;;;;5024495;28;20830;-90
2023/07/19 05:42:22;;;;;;;3.87;2.67;;;;;;;;;;5026524;28;20470;-91
2023/07/19 05:44:49;;;;;;;10.10;3.70;;;19.20;99.90;;;;;;5029961;28;20494;-90
2023/07/19 05:47:17;;;;;;;8.80;4.83;;;19.20;99.90;;;;;;5026224;28;20551;-90
2023/07/19 05:49:44;;;;;;;10.80;3.70;;;;;;;;;;5028415;28;20451;-90
2023/07/19 05:52:12;;;;;;;5.20;4.07;;;19.30;99.90;;;;;;5028120;28;20540;-89
2023/07/19 05:54:40;;;;;;;6.27;3.20;;;19.50;99.90;;;;;;5039307;28;20439;-90
2023/07/19 05:57:07;;;;;;;4.03;3.30;;;19.50;99.90;;;;;;5040009;28;20503;-91
2023/07/19 05:59:34;;;;;;;2.53;2.23;;;;;;;;;;5033669;28;20440;-89
2023/07/19 06:02:01;;;;;;;3.83;2.43;;;19.70;99.90;;;;;;5035342;28;20499;-91
2023/07/19 06:04:28;;;;;;;2.87;2.53;;;19.70;99.90;;;;;;5035181;28;20482;-90
2023/07/19 06:06:56;;;;;;;2.77;2.40;;;;;;;;;;5038073;28;20443;-90
2023/07/19 06:09:23;;;;;;;5.00;2.33;;;;;;;;;;5036096;28;20458;-90
2023/07/19 06:11:56;;;;;;;6.80;2.43;;;19.50;1.00;;;;;;5038654;28;20475;-90
2023/07/19 06:14:23;;;;;;;3.47;3.10;;;20.00;99.90;;;;;;5038227;28;20432;-90
2023/07/19 06:16:50;;;;;;;4.50;2.90;;;;;;;;;;5034622;28;20499;-89
2023/07/19 06:19:19;;;;;;;3.07;2.43;;;19.90;99.90;;;;;;5035121;28;20847;-89
2023/07/19 06:21:46;;;;;;;7.50;2.60;;;20.10;1.00;;;;;;5033075;28;20464;-89
2023/07/19 06:24:13;;;;;;;5.10;2.57;;;20.00;99.90;;;;;;5031549;28;20450;-89
2023/07/19 06:26:40;;;;;;;6.33;3.20;;;20.00;99.90;;;;;;5032912;28;20439;-89
2023/07/19 06:29:08;;;;;;;3.87;2.17;;;20.50;99.90;;;;;;5038100;28;20432;-89
2023/07/19 06:31:37;;;;;;;5.47;2.67;;;20.20;99.90;;;;;;5029362;28;20504;-89
2023/07/19 06:34:05;;;;;;;5.20;2.87;;;20.40;1.00;;;;;;5031658;28;20450;-90
2023/07/19 06:36:33;;;;;;;3.63;2.53;;;20.30;99.90;;;;;;5033845;28;20558;-90
2023/07/19 06:39:00;;;;;;;3.77;3.33;;;20.30;99.90;;;;;;5030746;28;20483;-89
2023/07/19 06:41:27;;;;;;;6.60;2.60;;;20.40;99.90;;;;;;5030166;28;20483;-90
2023/07/19 06:43:54;;;;;;;7.17;3.20;;;;;;;;;;5028169;28;20475;-90
2023/07/19 06:46:22;;;;;;;6.70;2.93;;;20.40;99.90;;;;;;5023411;28;20478;-89
2023/07/19 06:48:49;;;;;;;9.03;4.70;;;20.50;99.90;;;;;;5026024;28;20547;-89
2023/07/19 06:51:16;;;;;;;9.53;8.53;;;;;;;;;;5021315;28;20525;-89
2023/07/19 06:53:43;;;;;;;9.80;6.20;;;20.70;99.90;;;;;;5020265;28;20453;-89
2023/07/19 06:56:10;;;;;;;7.03;4.47;;;20.70;99.90;;;;;;5020849;28;20549;-88
2023/07/19 06:58:37;;;;;;;7.13;4.63;;;20.70;99.90;;;;;;5020349;28;20459;-89
2023/07/19 07:01:03;;;;;;;4.23;3.20;;;20.70;99.90;;;;;;5021286;28;20467;-90
2023/07/19 07:03:34;;;;;;;6.93;3.13;;;20.60;99.90;;;;;;5021330;28;20829;-90
2023/07/19 07:06:01;;;;;;;2.80;2.60;;;20.60;99.90;;;;;;5019449;28;20897;-89
2023/07/19 07:08:28;;;;;;;3.70;3.30;;;21.80;99.90;;;;;;5021948;28;20458;-88
2023/07/19 07:10:55;;;;;;;5.77;2.70;;;21.10;1.00;;;;;;5035695;28;20442;-89
2023/07/19 07:13:21;;;;;;;10.33;3.10;;;21.10;99.90;;;;;;5033894;28;20458;-89
2023/07/19 07:15:51;;;;;;;7.30;2.70;;;21.10;99.90;;;;;;5037751;28;20792;-89
2023/07/19 07:18:18;;;;;;;2.83;2.53;;;;;;;;;;5037988;28;20464;-89
2023/07/19 07:20:46;;;;;;;3.60;2.50;;;21.30;1.00;;;;;;5026816;28;20458;-90
2023/07/19 07:23:13;;;;;;;6.90;4.10;;;21.50;99.90;;;;;;5027060;28;20448;-89
2023/07/19 07:25:40;;;;;;;4.57;3.30;;;21.60;99.90;;;;;;5038288;28;20510;-89
2023/07/19 07:28:08;;;;;;;3.00;2.63;;;21.60;99.90;;;;;;5024292;28;20546;-90
2023/07/19 07:30:37;;;;;;;5.30;3.20;;;21.70;99.90;;;;;;5020066;28;20455;-90
2023/07/19 07:33:04;;;;;;;7.03;3.03;;;21.70;99.90;;;;;;5019771;28;20470;-91
2023/07/19 07:35:31;;;;;;;5.20;2.53;;;22.10;99.90;;;;;;5020860;28;20452;-90
2023/07/19 07:37:59;;;;;;;4.33;2.97;;;22.00;99.90;;;;;;5020310;28;20531;-89
2023/07/19 07:40:26;;;;;;;4.23;3.27;;;22.40;1.00;;;;;;5020318;28;20467;-89
2023/07/19 07:42:54;;;;;;;2.50;2.30;;;;;;;;;;5022180;28;20471;-89
2023/07/19 07:45:21;;;;;;;3.43;3.10;;;22.20;99.90;;;;;;5023753;28;20879;-89
2023/07/19 07:47:48;;;;;;;3.57;2.87;;;;;;;;;;5026331;28;20466;-90
2023/07/19 07:50:15;;;;;;;5.37;3.13;;;;;;;;;;5024413;28;21016;-90
2023/07/19 07:52:42;;;;;;;4.20;3.07;;;22.40;99.90;;;;;;5027634;28;20487;-89
2023/07/19 07:55:11;;;;;;;4.10;2.80;;;22.30;99.90;;;;;;5026940;28;20456;-90
2023/07/19 07:57:38;;;;;;;2.80;2.50;;;;;;;;;;5022472;28;20486;-90
2023/07/19 08:00:07;;;;;;;5.27;3.17;;;22.40;99.90;;;;;;5021170;28;20463;-89
2023/07/19 08:02:35;;;;;;;4.47;2.83;;;;;;;;;;5025444;28;20471;-88
2023/07/19 08:05:03;;;;;;;4.10;3.10;;;;;;;;;;5060637;22;20515;-91
2023/07/19 08:07:32;;;;;;;3.00;2.70;;;23.30;1.00;;;;;;5038074;28;20416;-89
2023/07/19 08:10:15;;;;;;;4.00;2.53;;;23.20;99.90;;;;;;5038072;28;20439;-90
2023/07/19 08:12:42;;;;;;;6.80;5.43;;;;;;;;;;5032803;28;20481;-90
2023/07/19 08:15:10;;;;;;;5.50;4.00;;;23.20;99.90;;;;;;5022690;28;20455;-90
2023/07/19 08:17:37;;;;;;;5.33;3.67;;;;;;;;;;5020013;28;20487;-89
2023/07/19 08:20:09;;;;;;;6.60;2.53;;;23.50;1.00;;;;;;5024255;28;20462;-89
2023/07/19 08:22:37;;;;;;;2.27;2.10;;;23.50;1.00;;;;;;5021016;28;20491;-89
2023/07/19 08:25:08;;;;;;;3.17;2.87;;;23.40;99.90;;;;;;5026994;28;20451;-89
2023/07/19 08:27:36;;;;;;;6.80;3.87;;;23.40;99.90;;;;;;5032754;28;20432;-90
2023/07/19 08:30:05;;;;;;;2.90;2.70;;;;;;;;;;5036707;28;20447;-90
2023/07/19 08:32:32;;;;;;;3.87;3.33;;;;;;;;;;5037267;28;20479;-89
2023/07/19 08:35:00;;;;;;;3.20;2.33;;;;;;;;;;5031323;28;20454;-90
2023/07/19 08:37:27;;;;;;;2.53;2.33;;;;;;;;;;5027661;28;20475;-89
2023/07/19 08:39:54;;;;;;;2.60;2.07;;;23.50;99.90;;;;;;5025336;28;20798;-89
2023/07/19 08:42:21;;;;;;;6.33;2.20;;;;;;;;;;5024408;28;20498;-90
2023/07/19 08:44:50;;;;;;;2.60;1.90;;;23.80;99.90;;;;;;5024084;28;20808;-90
2023/07/19 08:47:18;;;;;;;3.90;2.47;;;23.90;99.90;;;;;;5032424;28;20481;-89
2023/07/19 08:49:45;;;;;;;3.37;1.90;;;;;;;;;;5037353;28;20470;-89
2023/07/19 08:52:14;;;;;;;3.80;2.37;;;23.90;99.90;;;;;;5040268;28;20460;-88
2023/07/19 08:54:41;;;;;;;2.63;1.97;;;;;;;;;;5041054;28;20443;-89
2023/07/19 08:57:08;;;;;;;4.17;3.53;;;;;;;;;;5035481;28;20479;-89
2023/07/19 08:59:35;;;;;;;5.03;2.10;;;24.10;99.90;;;;;;5031167;28;20987;-89
2023/07/19 09:02:04;;;;;;;4.43;2.20;;;24.20;99.90;;;;;;5023980;28;20492;-90
2023/07/19 09:04:33;;;;;;;4.50;2.47;;;24.00;1.00;;;;;;5030285;28;20447;-90
2023/07/19 09:07:03;;;;;;;4.03;2.50;;;24.30;99.90;;;;;;5040058;28;20475;-89
2023/07/19 09:09:30;;;;;;;3.47;1.90;;;24.90;1.00;;;;;;5036324;28;20435;-89
2023/07/19 09:11:58;;;;;;;3.23;2.93;;;24.40;99.90;;;;;;5024354;28;20455;-90
2023/07/19 09:14:35;;;;;;;3.13;2.27;;;24.40;99.90;;;;;;5025232;28;20432;-89
2023/07/19 09:17:04;;;;;;;3.97;2.17;;;24.50;99.90;;;;;;5025188;28;20467;-89
2023/07/19 09:19:32;;;;;;;4.17;2.23;;;;;;;;;;5033261;28;20455;-89
2023/07/19 09:22:04;;;;;;;3.70;2.40;;;24.60;99.90;;;;;;5026171;28;20467;-90
2023/07/19 09:24:32;;;;;;;3.73;2.10;;;;;;;;;;5033175;28;20438;-89
2023/07/19 09:27:00;;;;;;;4.03;2.57;;;;;;;;;;5030270;28;20443;-89
2023/07/19 09:29:30;;;;;;;4.27;1.97;;;24.50;99.90;;;;;;5021761;28;20986;-89
2023/07/19 09:31:58;;;;;;;4.47;2.70;;;24.40;99.90;;;;;;5022891;28;20960;-90
2023/07/19 09:34:29;;;;;;;6.80;4.53;;;24.20;99.90;;;;;;5034515;28;20519;-89
2023/07/19 09:36:59;;;;;;;8.63;2.67;;;;;;;;;;5037132;28;20472;-90
2023/07/19 09:39:26;;;;;;;2.33;2.10;;;;;;;;;;5024709;28;20447;-91
2023/07/19 09:41:55;;;;;;;2.10;1.93;;;24.60;99.90;;;;;;5022693;28;20831;-89
2023/07/19 09:44:22;;;;;;;2.80;2.43;;;24.60;99.90;;;;;;5022082;28;20502;-90
2023/07/19 09:46:50;;;;;;;3.50;2.60;;;24.60;99.90;;;;;;5021851;28;20503;-89
2023/07/19 09:49:17;;;;;;;2.90;2.60;;;;;;;;;;5023804;28;20452;-89
2023/07/19 09:51:48;;;;;;;3.60;2.17;;;24.80;99.90;;;;;;5023133;28;20479;-89
2023/07/19 09:54:17;;;;;;;3.30;2.93;;;24.80;99.90;;;;;;5026695;28;20500;-90
2023/07/19 09:56:45;;;;;;;2.83;2.47;;;24.80;99.90;;;;;;5030021;28;20455;-89
2023/07/19 09:59:15;;;;;;;2.30;2.10;;;24.80;99.90;;;;;;5033141;28;20472;-90
2023/07/19 10:01:43;;;;;;;2.40;2.20;;;24.80;99.90;;;;;;5031706;28;20567;-91
2023/07/19 10:04:23;;;;;;;3.17;2.63;;;24.80;99.90;;;;;;5029137;28;20456;-89
2023/07/19 10:07:03;;;;;;;8.60;3.00;;;24.60;99.90;;;;;;5021647;28;20955;-89
2023/07/19 10:09:37;;;;;;;2.53;2.33;;;24.70;99.90;;;;;;5024072;28;20510;-89
2023/07/19 10:12:08;;;;;;;4.43;2.23;;;24.70;99.90;;;;;;5032998;28;20471;-89
2023/07/19 10:14:35;;;;;;;5.17;2.50;;;24.80;99.90;;;;;;5031999;28;20447;-89
2023/07/19 10:17:04;;;;;;;3.00;2.53;;;24.90;99.90;;;;;;5030474;28;20621;-89
2023/07/19 10:19:31;;;;;;;3.40;2.80;;;;;;;;;;5026793;28;20456;-87
2023/07/19 10:22:04;;;;;;;5.20;2.40;;;24.70;99.90;;;;;;5023213;28;20494;-89
2023/07/19 10:24:32;;;;;;;5.17;2.60;;;24.70;99.90;;;;;;5022781;28;20436;-89
2023/07/19 10:27:02;;;;;;;3.40;2.70;;;24.60;99.90;;;;;;5022870;28;20547;-88
2023/07/19 10:29:39;;;;;;;2.50;2.30;;;24.50;99.90;;;;;;5021094;28;20442;-89
2023/07/19 10:32:07;;;;;;;3.30;3.10;;;24.60;99.90;;;;;;5025157;28;20471;-89
2023/07/19 10:34:34;;;;;;;4.90;2.90;;;24.60;99.90;;;;;;5020023;28;20952;-89
2023/07/19 10:37:06;;;;;;;4.70;2.30;;;24.70;99.90;;;;;;5020529;28;20534;-89
2023/07/19 10:39:34;;;;;;;3.53;2.87;;;24.80;99.90;;;;;;5020213;28;20435;-89
2023/07/19 10:42:01;;;;;;;3.10;2.40;;;24.80;99.90;;;;;;5020338;28;20506;-88
2023/07/19 10:44:28;;;;;;;2.30;2.10;;;24.80;99.90;;;;;;5023523;28;20991;-90
2023/07/19 10:46:56;;;;;;;3.57;2.20;;;24.90;99.90;;;;;;5021230;28;20873;-89
2023/07/19 10:49:24;;;;;;;3.80;2.47;;;24.80;99.90;;;;;;5020079;28;20456;-89
2023/07/19 10:51:55;;;;;;;3.80;2.33;;;24.80;99.90;;;;;;5019680;28;21010;-89
2023/07/19 10:54:24;;;;;;;3.83;3.20;;;25.00;99.90;;;;;;5021967;28;20947;-90
2023/07/19 10:56:51;;;;;;;4.53;2.20;;;25.10;99.90;;;;;;5020149;28;20978;-89
2023/07/19 10:59:19;;;;;;;7.30;2.83;;;25.20;99.90;;;;;;5020849;28;20483;-90
2023/07/19 11:01:49;;;;;;;3.00;2.20;;;25.20;99.90;;;;;;5022314;28;20483;-89
2023/07/19 11:04:18;;;;;;;4.60;2.30;;;25.10;99.90;;;;;;5032906;28;20474;-89
2023/07/19 11:06:55;;;;;;;4.30;2.30;;;25.00;99.90;;;;;;5031964;28;20502;-89
2023/07/19 11:09:24;;;;;;;3.63;2.40;;;24.70;99.90;;;;;;5024115;28;20473;-89
2023/07/19 11:11:51;;;;;;;5.50;4.70;;;24.90;99.90;;;;;;5020472;28;20465;-89
2023/07/19 11:14:29;;;;;;;3.17;2.70;;;25.00;1.00;;;;;;5018604;28;20482;-88
2023/07/19 11:16:56;;;;;;;2.57;1.97;;;24.90;99.90;;;;;;5019488;28;20490;-88
2023/07/19 11:19:37;;;;;;;5.20;2.33;;;24.90;99.90;;;;;;5019308;28;21152;-90
2023/07/19 11:22:04;;;;;;;3.70;2.80;;;24.80;99.90;;;;;;5019938;28;21051;-88
2023/07/19 11:24:40;;;;;;;5.17;2.70;;;24.90;99.90;;;;;;5023443;28;20471;-89
2023/07/19 11:27:08;;;;;;;5.33;3.70;;;24.70;99.90;;;;;;5032779;28;20435;-90
2023/07/19 11:29:36;;;;;;;3.93;2.60;;;24.90;99.90;;;;;;5020048;28;20467;-88
2023/07/19 11:32:18;;;;;;;3.47;2.43;;;25.00;99.90;;;;;;5021656;28;20475;-89
2023/07/19 11:34:47;;;;;;;8.50;5.47;;;25.10;99.90;;;;;;5020026;28;20432;-89
2023/07/19 11:37:21;;;;;;;2.30;2.20;;;25.10;99.90;;;;;;5019000;28;20482;-89
2023/07/19 11:39:50;;;;;;;3.73;2.60;;;25.20;99.90;;;;;;5032185;28;20506;-89
2023/07/19 11:42:42;;;;;;;4.23;2.80;;;25.20;99.90;;;;;;5022363;28;20495;-89
2023/07/19 11:45:11;;;;;;;2.43;2.23;;;25.50;99.90;;;;;;5019780;28;20972;-90
2023/07/19 11:47:38;;;;;;;3.30;2.50;;;25.60;99.90;;;;;;5020327;28;20448;-89
2023/07/19 11:50:06;;;;;;;3.57;2.37;;;;;;;;;;5038652;28;20424;-88
2023/07/19 11:52:46;;;;;;;4.23;3.10;;;26.00;99.90;;;;;;5038428;28;20463;-88
2023/07/19 11:55:16;;;;;;;4.40;2.50;;;26.00;99.90;;;;;;5036909;28;20432;-88
2023/07/19 11:57:44;;;;;;;2.93;2.37;;;25.90;99.90;;;;;;5038145;28;20476;-87
2023/07/19 12:00:14;;;;;;;2.77;2.57;;;25.80;99.90;;;;;;5026097;28;20462;-88
2023/07/19 12:02:43;;;;;;;2.70;2.50;;;24.70;99.90;;;;;;5021057;28;20500;-89
2023/07/19 12:05:12;;;;;;;2.90;2.70;;;25.60;99.90;;;;;;5018712;28;20462;-89
2023/07/19 12:07:39;;;;;;;7.73;3.27;;;25.50;99.90;;;;;;5021156;28;20505;-88
2023/07/19 12:10:06;;;;;;;2.90;2.37;;;25.50;99.90;;;;;;5038072;28;20487;-90
2023/07/19 12:12:36;;;;;;;5.67;2.30;;;25.50;99.90;;;;;;5027817;28;20530;-89
2023/07/19 12:15:06;;;;;;;6.90;2.90;;;25.40;99.90;;;;;;5023355;28;20479;-89
2023/07/19 12:17:33;;;;;;;4.40;2.97;;;25.40;99.90;;;;;;5032594;28;20434;-88
2023/07/19 12:20:07;;;;;;;3.50;2.40;;;25.30;99.90;;;;;;5030972;28;20447;-89
2023/07/19 12:22:35;;;;;;;4.40;2.63;;;;;;;;;;5030032;28;20471;-89
2023/07/19 12:25:02;;;;;;;3.40;3.13;;;25.30;99.90;;;;;;5025062;28;20451;-89
2023/07/19 12:27:28;;;;;;;4.73;3.30;;;25.20;99.90;;;;;;5030802;28;20447;-89
2023/07/19 12:29:58;;;;;;;2.67;2.40;;;25.10;99.90;;;;;;5024157;28;20610;-89
2023/07/19 12:32:25;;;;;;;3.53;2.13;;;25.00;99.90;;;;;;5021290;28;20471;-89
2023/07/19 12:34:52;;;;;;;2.77;1.93;;;25.00;99.90;;;;;;5022196;28;20530;-89
2023/07/19 12:37:19;;;;;;;4.40;2.70;;;24.80;99.90;;;;;;5021555;28;20454;-89
2023/07/19 12:39:46;;;;;;;4.30;2.60;;;24.70;99.90;;;;;;5026670;28;20518;-89
2023/07/19 12:42:13;;;;;;;4.17;2.40;;;24.80;99.90;;;;;;5024374;28;20463;-89
2023/07/19 12:44:41;;;;;;;4.33;2.47;;;24.90;99.90;;;;;;5022511;28;20940;-89
2023/07/19 12:47:09;;;;;;;4.90;2.50;;;25.20;1.00;;;;;;5021305;28;20523;-88
2023/07/19 12:49:36;;;;;;;2.10;1.90;;;25.00;99.90;;;;;;5021942;28;21012;-88
2023/07/19 12:52:04;;;;;;;3.33;2.23;;;24.90;99.90;;;;;;5026922;28;20522;-88
2023/07/19 12:54:32;;;;;;;2.50;2.30;;;25.00;99.90;;;;;;5021700;28;20531;-89
2023/07/19 12:56:59;;;;;;;5.10;2.57;;;25.00;99.90;;;;;;5021830;28;20454;-89
2023/07/19 12:59:26;;;;;;;3.37;3.07;;;25.20;99.90;;;;;;5028748;28;20485;-90
2023/07/19 13:01:52;;;;;;;4.20;2.90;;;25.20;99.90;;;;;;5030494;28;20559;-90
2023/07/19 13:04:21;;;;;;;3.33;2.87;;;25.10;99.90;;;;;;5024927;28;20538;-90
2023/07/19 13:06:48;;;;;;;5.53;2.70;;;25.20;99.90;;;;;;5023761;28;20447;-89
2023/07/19 13:09:15;;;;;;;4.10;3.00;;;25.10;99.90;;;;;;5029783;28;20467;-89
2023/07/19 13:11:43;;;;;;;2.50;2.30;;;25.00;99.90;;;;;;5027917;28;20521;-89
2023/07/19 13:14:12;;;;;;;3.53;2.40;;;25.10;99.90;;;;;;5019728;28;20460;-89
2023/07/19 13:16:39;;;;;;;3.00;2.70;;;25.10;99.90;;;;;;5019891;28;20454;-90
2023/07/19 13:19:06;;;;;;;3.87;2.67;;;25.10;99.90;;;;;;5019215;28;20483;-90
2023/07/19 13:21:34;;;;;;;4.20;3.13;;;25.10;99.90;;;;;;5020351;28;20490;-88
2023/07/19 13:24:01;;;;;;;2.60;2.40;;;;;;;;;;5025276;28;21019;-90
2023/07/19 13:26:28;;;;;;;3.10;2.60;;;25.30;99.90;;;;;;5028182;28;20444;-89
2023/07/19 13:28:56;;;;;;;3.57;3.27;;;;;;;;;;5039041;28;20458;-88
2023/07/19 13:31:24;;;;;;;3.53;3.23;;;;;;;;;;5039937;28;20455;-88
2023/07/19 13:33:51;;;;;;;4.23;3.80;;;;;;;;;;5037020;28;20436;-89
2023/07/19 13:36:18;;;;;;;4.20;3.73;;;25.20;99.90;;;;;;5026432;28;20451;-89
2023/07/19 13:38:46;;;;;;;6.50;3.70;;;25.10;99.90;;;;;;5023356;28;20912;-89
2023/07/19 13:41:13;;;;;;;3.00;2.80;;;25.20;99.90;;;;;;5024656;28;20499;-89
2023/07/19 13:43:39;;;;;;;6.70;5.70;;;25.30;99.90;;;;;;5028141;28;20466;-89
2023/07/19 13:46:06;;;;;;;3.33;3.03;;;25.20;99.90;;;;;;5022160;28;20503;-89
2023/07/19 13:48:33;;;;;;;6.47;3.23;;;;;;;;;;5021327;28;20483;-89
2023/07/19 13:51:03;;;;;;;4.50;3.63;;;24.90;1.00;;;;;;5026278;28;20467;-89
2023/07/19 13:53:30;;;;;;;5.17;2.80;;;;;;;;;;5025797;28;20452;-89
2023/07/19 13:55:58;;;;;;;2.70;2.37;;;25.10;99.90;;;;;;5026877;28;20447;-88
2023/07/19 13:58:25;;;;;;;3.10;2.80;;;25.20;99.90;;;;;;5030528;28;20521;-89
2023/07/19 14:00:52;;;;;;;2.90;2.70;;;25.00;1.00;;;;;;5038454;28;20491;-89
2023/07/19 14:03:19;;;;;;;3.23;2.93;;;;;;;;;;5036796;28;20478;-89
2023/07/19 14:05:46;;;;;;;3.70;2.40;;;25.00;99.90;;;;;;5026800;28;20550;-89
2023/07/19 14:08:13;;;;;;;2.60;2.40;;;25.00;99.90;;;;;;5027045;28;20448;-89
2023/07/19 14:10:40;;;;;;;2.70;2.50;;;24.90;99.90;;;;;;5027927;28;20452;-90
2023/07/19 14:13:08;;;;;;;6.97;2.80;;;25.00;99.90;;;;;;5029599;28;20463;-90
2023/07/19 14:15:35;;;;;;;2.70;2.50;;;25.20;99.90;;;;;;5030306;28;20468;-89
2023/07/19 14:18:03;;;;;;;3.00;2.53;;;25.20;99.90;;;;;;5029871;28;20474;-89
2023/07/19 14:20:30;;;;;;;3.07;2.77;;;25.10;99.90;;;;;;5028889;28;20455;-89
2023/07/19 14:22:56;;;;;;;2.63;2.43;;;25.00;99.90;;;;;;5028010;28;20479;-89
2023/07/19 14:25:23;;;;;;;2.97;2.67;;;25.00;99.90;;;;;;5024016;28;20555;-89
2023/07/19 14:27:50;;;;;;;3.73;2.40;;;25.00;99.90;;;;;;5027686;28;20455;-89
2023/07/19 14:30:19;;;;;;;3.80;2.43;;;25.00;99.90;;;;;;5030879;28;20519;-90
2023/07/19 14:32:46;;;;;;;3.50;2.80;;;;;;;;;;5023141;28;20494;-90
2023/07/19 14:35:13;;;;;;;8.47;2.70;;;25.10;99.90;;;;;;5026143;28;20455;-89
2023/07/19 14:37:41;;;;;;;4.60;2.50;;;25.40;1.00;;;;;;5030506;28;20474;-90
2023/07/19 14:40:09;;;;;;;4.20;2.33;;;25.30;99.90;;;;;;5037391;28;20475;-89
2023/07/19 14:42:36;;;;;;;2.67;2.33;;;25.20;99.90;;;;;;5038836;28;20452;-89
2023/07/19 14:45:06;;;;;;;6.53;2.90;;;25.20;99.90;;;;;;5038806;28;20459;-90
2023/07/19 14:47:35;;;;;;;2.93;2.50;;;25.30;99.90;;;;;;5038634;28;20454;-89
2023/07/19 14:50:02;;;;;;;3.10;2.80;;;25.10;99.90;;;;;;5038791;28;20436;-89
2023/07/19 14:52:29;;;;;;;7.00;3.70;;;25.20;99.90;;;;;;5038883;28;20463;-89
2023/07/19 14:54:56;;;;;;;3.67;2.80;;;25.30;99.90;;;;;;5038074;28;20427;-89
2023/07/19 14:57:23;;;;;;;5.90;3.53;;;25.30;99.90;;;;;;5037795;28;20451;-87
2023/07/19 14:59:49;;;;;;;3.40;3.00;;;25.20;99.90;;;;;;5036547;28;20558;-89
2023/07/19 15:02:16;;;;;;;3.43;2.80;;;25.40;99.90;;;;;;5030977;28;20467;-91
2023/07/19 15:04:45;;;;;;;2.50;2.30;;;25.40;99.90;;;;;;5030165;28;20448;-90
2023/07/19 15:07:12;;;;;;;4.60;2.40;;;25.40;99.90;;;;;;5030040;28;20436;-90
2023/07/19 15:09:39;;;;;;;2.83;1.73;;;;;;;;;;5031683;28;20448;-90
2023/07/19 15:12:07;;;;;;;2.67;2.30;;;25.30;99.90;;;;;;5027564;28;20463;-90
2023/07/19 15:14:36;;;;;;;6.60;2.50;;;;;;;;;;5023246;28;20811;-90
2023/07/19 15:17:03;;;;;;;3.33;2.40;;;25.20;99.90;;;;;;5020828;28;20807;-92
2023/07/19 15:19:30;;;;;;;4.27;2.10;;;25.20;99.90;;;;;;5024081;28;20882;-90
2023/07/19 15:21:58;;;;;;;3.50;2.47;;;25.30;99.90;;;;;;5026827;28;20487;-90
2023/07/19 15:24:25;;;;;;;4.80;2.33;;;25.20;99.90;;;;;;5023516;28;20879;-90
2023/07/19 15:26:53;;;;;;;4.03;2.30;;;25.20;99.90;;;;;;5022096;28;20984;-90
2023/07/19 15:29:20;;;;;;;2.83;2.37;;;25.20;99.90;;;;;;5022273;28;20447;-90
2023/07/19 15:31:47;;;;;;;2.27;2.07;;;25.70;1.00;;;;;;5023095;28;20471;-90
2023/07/19 15:34:14;;;;;;;7.67;4.27;;;25.30;99.90;;;;;;5024518;28;20459;-89
2023/07/19 15:36:43;;;;;;;2.47;2.23;;;24.90;1.00;;;;;;5020972;28;20805;-89
2023/07/19 15:39:12;;;;;;;2.87;1.93;;;25.20;99.90;;;;;;5021163;28;20615;-89
2023/07/19 15:41:39;;;;;;;3.60;2.20;;;;;;;;;;5023449;28;20507;-91
2023/07/19 15:44:07;;;;;;;4.10;2.50;;;24.90;99.90;;;;;;5024957;28;20456;-89
2023/07/19 15:46:33;;;;;;;2.03;1.83;;;24.60;99.90;;;;;;5024948;28;20455;-88
2023/07/19 15:49:00;;;;;;;2.30;2.00;;;25.00;99.90;;;;;;5024266;28;20537;-89
2023/07/19 15:51:28;;;;;;;4.70;3.90;;;24.70;99.90;;;;;;5024012;28;20479;-87
2023/07/19 15:53:55;;;;;;;4.57;2.33;;;;;;;;;;5023128;28;20471;-89
2023/07/19 15:56:23;;;;;;;4.03;2.70;;;24.80;99.90;;;;;;5023892;28;20927;-89
2023/07/19 15:58:50;;;;;;;5.93;2.37;;;24.70;99.90;;;;;;5023581;28;20481;-89
2023/07/19 16:01:17;;;;;;;3.10;2.73;;;24.60;99.90;;;;;;5024577;28;20467;-89
2023/07/19 16:03:45;;;;;;;2.83;2.37;;;24.50;99.90;;;;;;5024555;28;20505;-90
2023/07/19 16:06:11;;;;;;;2.40;1.80;;;24.50;99.90;;;;;;5023746;28;20463;-89
2023/07/19 16:08:40;;;;;;;3.03;2.20;;;24.90;1.00;;;;;;5022687;28;20982;-89
2023/07/19 16:11:07;;;;;;;4.50;2.03;;;;;;;;;;5024398;28;20471;-89
2023/07/19 16:13:35;;;;;;;3.77;3.10;;;24.90;99.90;;;;;;5041909;28;20466;-89
2023/07/19 16:16:04;;;;;;;3.87;2.20;;;24.70;99.90;;;;;;5038977;28;20499;-89
2023/07/19 16:18:31;;;;;;;2.20;1.87;;;24.80;1.00;;;;;;5040042;28;20460;-89
2023/07/19 16:20:58;;;;;;;5.10;2.53;;;24.90;1.00;;;;;;5032159;28;20538;-90
2023/07/19 16:23:24;;;;;;;2.70;2.50;;;24.70;99.90;;;;;;5028423;28;20515;-89
2023/07/19 16:25:52;;;;;;;3.37;2.63;;;;;;;;;;5036530;28;20538;-90
2023/07/19 16:28:19;;;;;;;2.13;1.93;;;24.70;99.90;;;;;;5024857;28;20469;-90
2023/07/19 16:30:47;;;;;;;3.23;2.93;;;24.10;1.00;;;;;;5035580;28;20890;-89
2023/07/19 16:33:14;;;;;;;2.40;2.20;;;24.10;99.90;;;;;;5040309;28;20435;-89
2023/07/19 16:35:41;;;;;;;7.63;5.43;;;24.00;99.90;;;;;;5029715;28;20535;-88
2023/07/19 16:38:09;;;;;;;4.03;2.93;;;23.90;99.90;;;;;;5030272;28;20450;-89
2023/07/19 16:40:36;;;;;;;7.20;5.83;;;23.90;99.90;;;;;;5029463;28;20508;-89
2023/07/19 16:43:03;;;;;;;7.47;2.30;;;23.90;99.90;;;;;;5028062;28;20478;-90
2023/07/19 16:45:34;;;;;;;2.60;2.17;;;24.30;1.00;;;;;;5023504;28;20539;-90
2023/07/19 16:48:03;;;;;;;3.50;2.03;;;24.00;99.90;;;;;;5022971;28;20458;-89
2023/07/19 16:50:30;;;;;;;2.73;2.17;;;24.00;99.90;;;;;;5024836;28;20516;-88